Bullfrog, Utah
Current Conditions -  °F | °C
As of 11:55 AM on Friday 24 Oct 2014 (Local Time) from KBDG Reporting Station
Clear Clear  
Wind Chill: 63°   Ceiling: Unl
Heat Index: 63°   Visibility: 10mi
Dew Point: 33°   Wind: 3mph
Humidity: 32%   Direction: 100°E
Pressure: 30.44"   Gusts: NA
Location:  37.6208°N, 109.479°W
Report Text: KBDG 241755Z AUTO 10003KT 10SM CLR 17/01 A3044 RMK AO1 T01730005 10214 20023
Loading
Personal Weather Stations






























Interactive Weather Map
Tropical Storm Tracking
New forecast layout! Learn more

10-Day Weather Forecast

Advertisements
Track Severe Weather on mobile